Hauptseite
METAR-TAF:

METAR-TAF

Flughäfen :

Nancy, Frankreich

Breite: 48-41N, Länge: 006-13E, Höhe: 225 m

Beobachtung

Neuester Wetterbericht von vor 28 Minuten, um 09:00 UTC
Wind 17 kt aus West/Südwest, Böen bis zu 29 kt, variierte zwischen Süd/Südwest und West
Temperatur 8°C
Luftfeuchtigkeit 81%
Luftdruck 1000 hPa
Sichtweite 10 km oder mehr
Leichtregen

METAR: LFSN 160900Z AUTO 24017G29KT 210V280 9999 -RA BKN023/// BKN031/// BKN046/// ///TCU 08/05 Q1000

Zeit: 10:28 (09:28 UTC)


TAF: fehlend

Wetterbeobachtungen und Prognosen von mehr als 4000 Flughäfen (METAR und TAF Bericht).

Die verfügbaren Stationen werden durch gelbe und rote Markierungen auf der Karte dargestellt.

Führen Sie die Maus auf sie, um den Namen der Station zu sehen.

Darauf klicken, um die Beobachtung von Wetterbeobachtungen und Prognosen zu sehen.

Um die Karte zu ändern : klicken Sie auf den grünen Tasten mit einem schwarzen Kreuz Zum Vergrößern, auf den grünen Button mit einem Gedankenstrich zu verkleinern, oder auf die grünen Pfeile für benachbarte Karten.


METAR-TAF: